Time;durP1;ratioP1;P1;durP2;ratioP2;P2;SDS_P1;SDS_P2;PMS_P1;PMS_P2;Temp;Humidity;BMP_temperature;BMP_pressure;BME280_temperature;BME280_humidity;BME280_pressure;Samples;Min_cycle;Max_cycle;Signal;HPM_P1;HPM_P2
2022/01/14 00:00:33;;;;;;;8.32;7.15;;;;;;;;;;5037230;28;20410;-60
2022/01/14 00:02:58;;;;;;;13.65;7.97;;;;;;;;;;5041726;28;20025;-60
2022/01/14 00:05:23;;;;;;;9.43;7.00;;;;;;;;;;5038410;28;20351;-60
2022/01/14 00:07:49;;;;;;;8.02;6.18;;;;;;;;;;5043187;28;20029;-60
2022/01/14 00:10:14;;;;;;;11.57;7.13;;;;;;;;;;5038422;28;20482;-60
2022/01/14 00:12:47;;;;;;;7.65;6.75;;;;;;;;;;5041418;28;20045;-60
2022/01/14 00:15:26;;;;;;;9.93;7.53;;;;;;;;;;5037631;28;20040;-60
2022/01/14 00:17:52;;;;;;;15.13;7.78;;;;;;;;;;5038046;28;20033;-60
2022/01/14 00:20:19;;;;;;;7.32;6.10;;;;;;;;;;5042648;28;20029;-60
2022/01/14 00:22:45;;;;;;;9.63;6.70;;;;;;;;;;5041414;28;20057;-60
2022/01/14 00:33:09;;;;;;;17.02;6.88;;;;;;;;;;5039637;28;20056;-59
2022/01/14 00:35:44;;;;;;;9.88;7.35;;;;;;;;;;5039418;28;20033;-60
2022/01/14 00:38:11;;;;;;;7.50;6.80;;;;;;;;;;5036717;28;20473;-60
2022/01/14 00:40:36;;;;;;;8.73;6.90;;;;;;;;;;5046308;28;20033;-60
2022/01/14 00:43:02;;;;;;;7.55;6.68;;;;;;;;;;5038071;28;20035;-60
2022/01/14 00:45:28;;;;;;;9.38;6.00;;;;;;;;;;5037571;28;20041;-60
2022/01/14 00:47:53;;;;;;;8.43;5.68;;;;;;;;;;5035570;28;20047;-60
2022/01/14 00:50:19;;;;;;;9.27;8.23;;;;;;;;;;5037039;28;20056;-60
2022/01/14 00:52:46;;;;;;;7.20;6.47;;;;;;;;;;5039668;28;20045;-60
2022/01/14 00:55:14;;;;;;;12.73;6.82;;;;;;;;;;5036802;28;20043;-60
2022/01/14 01:00:28;;;;;;;6.15;5.55;;;;;;;;;;5040888;28;20051;-60
2022/01/14 01:02:55;;;;;;;10.82;6.90;;;;;;;;;;5037232;28;20044;-60
2022/01/14 01:05:21;;;;;;;11.25;7.97;;;;;;;;;;5036987;28;20150;-60
2022/01/14 01:07:57;;;;;;;7.85;6.07;;;;;;;;;;5037753;28;20075;-60
2022/01/14 01:10:23;;;;;;;8.63;6.63;;;;;;;;;;5039567;28;20130;-60
2022/01/14 01:12:54;;;;;;;10.10;6.43;;;;;;;;;;5038677;28;20033;-60
2022/01/14 01:15:20;;;;;;;10.77;6.63;;;;;;;;;;5040519;28;20473;-60
2022/01/14 01:17:46;;;;;;;8.05;7.10;;;;;;;;;;5037556;28;20510;-60
2022/01/14 01:20:15;;;;;;;11.88;8.10;;;;;;;;;;5039671;28;20037;-60
2022/01/14 01:22:41;;;;;;;5.40;4.88;;;;;;;;;;5041540;28;20493;-60
2022/01/14 01:25:09;;;;;;;8.18;7.38;;;;;;;;;;5036280;28;20041;-60
2022/01/14 01:27:39;;;;;;;8.73;6.55;;;;;;;;;;5038678;28;20427;-60
2022/01/14 01:30:27;;;;;;;12.80;6.32;;;;;;;;;;5039003;28;20029;-60
2022/01/14 01:32:53;;;;;;;8.05;5.35;;;;;;;;;;5036409;28;20037;-60
2022/01/14 01:35:19;;;;;;;6.07;5.03;;;;;;;;;;5038871;28;20056;-60
2022/01/14 01:37:45;;;;;;;8.68;5.65;;;;;;;;;;5039301;28;20044;-60
2022/01/14 01:40:11;;;;;;;16.52;7.43;;;;;;;;;;5037687;28;20041;-60
2022/01/14 01:42:39;;;;;;;7.93;6.80;;;;;;;;;;5037851;28;20386;-60
2022/01/14 01:45:09;;;;;;;8.88;6.05;;;;;;;;;;5037693;28;20061;-60
2022/01/14 01:47:35;;;;;;;12.95;6.28;;;;;;;;;;5035079;28;20355;-60
2022/01/14 01:50:09;;;;;;;10.15;6.43;;;;;;;;;;5039536;28;20028;-60
2022/01/14 01:52:34;;;;;;;7.85;6.97;;;;;;;;;;5037206;28;20036;-60
2022/01/14 01:55:00;;;;;;;9.20;7.13;;;;;;;;;;5036212;28;20108;-60
2022/01/14 01:57:25;;;;;;;7.60;6.28;;;;;;;;;;5038026;28;20459;-60
2022/01/14 01:59:51;;;;;;;7.07;5.82;;;;;;;;;;5037218;28;20112;-60
2022/01/14 02:02:16;;;;;;;6.78;5.38;;;;;;;;;;5039012;28;20029;-60
2022/01/14 02:04:41;;;;;;;8.52;6.55;;;;;;;;;;5040804;28;20500;-60
2022/01/14 02:07:07;;;;;;;12.45;8.63;;;;;;;;;;5041821;28;20018;-60
2022/01/14 02:09:32;;;;;;;8.82;7.20;;;;;;;;;;5038557;28;20045;-60
2022/01/14 02:11:57;;;;;;;6.45;5.55;;;;;;;;;;5041963;28;20025;-59
2022/01/14 02:14:40;;;;;;;7.53;6.05;;;;;;;;;;5041044;28;20033;-59
2022/01/14 02:22:09;;;;;;;7.97;6.25;;;;;;;;;;5039897;28;20033;-59
2022/01/14 02:22:53;;;;;;;7.40;5.68;;;;;;;;;;5038516;28;20386;-59
2022/01/14 02:25:29;;;;;;;7.40;5.93;;;;;;;;;;5042008;28;20045;-59
2022/01/14 02:28:05;;;;;;;12.35;7.03;;;;;;;;;;5043463;28;20477;-59
2022/01/14 02:30:33;;;;;;;6.63;5.60;;;;;;;;;;5040877;28;20092;-59
2022/01/14 02:32:59;;;;;;;10.90;6.35;;;;;;;;;;5044190;28;20025;-59
2022/01/14 02:35:25;;;;;;;8.05;5.93;;;;;;;;;;5040281;28;20463;-59
2022/01/14 02:37:52;;;;;;;7.40;5.70;;;;;;;;;;5040312;28;20032;-59
2022/01/14 02:40:18;;;;;;;6.03;5.43;;;;;;;;;;5042018;28;20029;-60
2022/01/14 02:42:43;;;;;;;8.88;6.60;;;;;;;;;;5041504;28;20083;-59
2022/01/14 02:45:11;;;;;;;8.13;6.40;;;;;;;;;;5040573;28;20049;-59
2022/01/14 02:47:37;;;;;;;5.53;4.95;;;;;;;;;;5040243;28;20616;-59
2022/01/14 02:50:07;;;;;;;5.65;5.13;;;;;;;;;;5042056;28;20063;-59
2022/01/14 02:55:19;;;;;;;5.95;5.35;;;;;;;;;;5039556;28;20036;-59
2022/01/14 02:57:47;;;;;;;5.05;4.60;;;;;;;;;;5039326;28;20045;-59
2022/01/14 03:00:14;;;;;;;11.10;5.38;;;;;;;;;;5039610;28;20032;-59
2022/01/14 03:02:43;;;;;;;5.80;5.15;;;;;;;;;;5040860;28;20029;-59
2022/01/14 03:05:09;;;;;;;8.18;5.45;;;;;;;;;;5041925;28;20028;-60
2022/01/14 03:07:39;;;;;;;11.38;6.93;;;;;;;;;;5039197;28;20056;-60
2022/01/14 03:10:06;;;;;;;6.78;4.97;;;;;;;;;;5040479;28;20037;-60
2022/01/14 03:12:31;;;;;;;7.80;7.00;;;;;;;;;;5043844;28;20033;-60
2022/01/14 03:14:56;;;;;;;10.23;6.32;;;;;;;;;;5044027;28;20029;-60
2022/01/14 03:17:22;;;;;;;5.88;4.60;;;;;;;;;;5039685;28;20072;-60
2022/01/14 03:19:48;;;;;;;7.53;5.53;;;;;;;;;;5042337;28;20037;-59
2022/01/14 03:22:30;;;;;;;9.30;6.72;;;;;;;;;;5038028;28;20016;-59
2022/01/14 03:27:22;;;;;;;9.02;5.72;;;;;;;;;;5039995;28;20140;-59
2022/01/14 03:29:48;;;;;;;6.03;4.22;;;;;;;;;;5042835;28;20928;-59
2022/01/14 03:32:14;;;;;;;9.13;5.35;;;;;;;;;;5041202;28;20083;-59
2022/01/14 03:34:40;;;;;;;6.43;5.82;;;;;;;;;;5041955;28;20053;-59
2022/01/14 03:37:05;;;;;;;6.57;5.82;;;;;;;;;;5039736;28;20064;-58
2022/01/14 03:39:31;;;;;;;6.30;5.53;;;;;;;;;;5041598;28;20095;-60
2022/01/14 03:41:56;;;;;;;5.50;5.00;;;;;;;;;;5041220;28;20079;-59
2022/01/14 03:44:22;;;;;;;4.80;4.38;;;;;;;;;;5041582;28;20498;-59
2022/01/14 03:46:47;;;;;;;5.35;4.85;;;;;;;;;;5040865;28;20435;-59
2022/01/14 03:49:13;;;;;;;7.47;5.47;;;;;;;;;;5038067;28;20056;-60
2022/01/14 03:51:39;;;;;;;8.55;5.47;;;;;;;;;;5038033;28;20034;-59
2022/01/14 03:54:05;;;;;;;6.78;6.07;;;;;;;;;;5040280;28;20083;-59
2022/01/14 03:56:31;;;;;;;6.22;4.82;;;;;;;;;;5039684;28;20051;-59
2022/01/14 03:58:56;;;;;;;5.47;4.97;;;;;;;;;;5043446;28;20433;-60
2022/01/14 04:01:22;;;;;;;5.65;5.07;;;;;;;;;;5038656;28;20033;-60
2022/01/14 04:03:49;;;;;;;9.38;5.45;;;;;;;;;;5043150;28;20373;-59
2022/01/14 04:06:16;;;;;;;5.05;4.55;;;;;;;;;;5040411;28;20030;-60
2022/01/14 04:08:42;;;;;;;4.45;3.85;;;;;;;;;;5039858;28;20051;-59
2022/01/14 04:11:08;;;;;;;6.55;4.03;;;;;;;;;;5039031;28;20480;-60
2022/01/14 04:16:03;;;;;;;6.80;4.65;;;;;;;;;;5038573;28;20482;-59
2022/01/14 04:18:29;;;;;;;4.25;3.85;;;;;;;;;;5038907;28;20041;-59
2022/01/14 04:20:54;;;;;;;5.22;4.72;;;;;;;;;;5042488;28;20320;-59
2022/01/14 04:23:22;;;;;;;5.07;4.28;;;;;;;;;;5039040;28;20415;-60
2022/01/14 04:25:51;;;;;;;6.28;5.13;;;;;;;;;;5041208;28;20033;-59
2022/01/14 04:28:18;;;;;;;6.10;5.05;;;;;;;;;;5035537;28;20043;-60
2022/01/14 04:30:46;;;;;;;6.47;5.88;;;;;;;;;;5038994;28;20644;-59
2022/01/14 04:33:11;;;;;;;5.07;4.20;;;;;;;;;;5040638;28;20120;-60
2022/01/14 04:35:37;;;;;;;5.53;4.43;;;;;;;;;;5039510;28;20124;-60
2022/01/14 04:38:02;;;;;;;7.95;4.95;;;;;;;;;;5040840;28;20071;-59
2022/01/14 04:40:28;;;;;;;6.45;4.63;;;;;;;;;;5039322;28;20103;-60
2022/01/14 04:42:54;;;;;;;4.85;4.28;;;;;;;;;;5039317;28;20108;-60
2022/01/14 04:45:42;;;;;;;11.02;4.93;;;;;;;;;;5041317;28;20040;-60
2022/01/14 04:48:08;;;;;;;6.35;4.85;;;;;;;;;;5039523;28;20123;-60
2022/01/14 04:50:34;;;;;;;7.30;4.90;;;;;;;;;;5040603;28;20028;-60
2022/01/14 04:53:00;;;;;;;6.10;5.47;;;;;;;;;;5040774;28;20441;-60
2022/01/14 04:55:27;;;;;;;5.93;5.35;;;;;;;;;;5038184;28;20056;-60
2022/01/14 04:57:54;;;;;;;5.20;4.68;;;;;;;;;;5039393;28;20029;-60
2022/01/14 05:00:22;;;;;;;5.75;4.60;;;;;;;;;;5039921;28;20039;-60
2022/01/14 05:02:47;;;;;;;7.43;5.88;;;;;;;;;;5040422;28;20032;-60
2022/01/14 05:05:17;;;;;;;8.10;5.65;;;;;;;;;;5041235;28;20067;-60
2022/01/14 05:07:44;;;;;;;7.05;5.13;;;;;;;;;;5038919;28;20478;-60
2022/01/14 05:10:34;;;;;;;7.13;5.22;;;;;;;;;;5038879;28;20033;-60
2022/01/14 05:13:01;;;;;;;6.78;6.05;;;;;;;;;;5037636;28;20083;-60
2022/01/14 05:15:27;;;;;;;5.22;4.72;;;;;;;;;;5039951;28;20106;-60
2022/01/14 05:17:52;;;;;;;5.68;4.50;;;;;;;;;;5037470;28;20731;-60
2022/01/14 05:20:18;;;;;;;7.60;4.60;;;;;;;;;;5040368;28;20064;-60
2022/01/14 05:22:44;;;;;;;6.93;6.03;;;;;;;;;;5037547;28;20029;-60
2022/01/14 05:25:11;;;;;;;7.03;5.20;;;;;;;;;;5038324;28;20025;-60
2022/01/14 05:27:36;;;;;;;4.75;4.13;;;;;;;;;;5040015;28;20482;-60
2022/01/14 05:30:06;;;;;;;9.27;4.20;;;;;;;;;;5037886;28;20106;-60
2022/01/14 05:32:32;;;;;;;5.57;4.43;;;;;;;;;;5040165;28;20029;-60
2022/01/14 05:34:57;;;;;;;8.27;5.05;;;;;;;;;;5038805;28;20056;-60
2022/01/14 05:37:22;;;;;;;4.43;4.00;;;;;;;;;;5041205;28;20044;-60
2022/01/14 05:39:48;;;;;;;5.00;3.63;;;;;;;;;;5037586;28;20041;-60
2022/01/14 05:42:13;;;;;;;4.38;3.53;;;;;;;;;;5041076;28;20072;-60
2022/01/14 05:44:39;;;;;;;4.30;3.70;;;;;;;;;;5037179;28;20060;-60
2022/01/14 05:47:05;;;;;;;5.03;4.53;;;;;;;;;;5040321;28;20120;-60
2022/01/14 05:49:31;;;;;;;4.68;4.18;;;;;;;;;;5041020;28;20075;-60
2022/01/14 05:51:56;;;;;;;5.93;4.22;;;;;;;;;;5038618;28;20060;-59
2022/01/14 05:54:22;;;;;;;4.35;3.95;;;;;;;;;;5038912;28;20105;-59
2022/01/14 05:56:48;;;;;;;4.50;4.10;;;;;;;;;;5038438;28;20484;-64
2022/01/14 05:59:13;;;;;;;4.00;3.13;;;;;;;;;;5052115;28;20033;-59
2022/01/14 06:01:40;;;;;;;4.20;3.80;;;;;;;;;;5036779;28;20033;-60
2022/01/14 06:04:05;;;;;;;3.65;3.33;;;;;;;;;;5037658;28;20120;-60
2022/01/14 06:06:32;;;;;;;5.40;4.78;;;;;;;;;;5037268;28;20115;-59
2022/01/14 06:08:58;;;;;;;4.72;4.05;;;;;;;;;;5038997;28;20064;-60
2022/01/14 06:11:24;;;;;;;5.88;4.20;;;;;;;;;;5040194;28;20092;-60
2022/01/14 06:13:49;;;;;;;4.35;3.95;;;;;;;;;;5037356;28;20041;-59
2022/01/14 06:16:15;;;;;;;6.43;3.63;;;;;;;;;;5037100;28;20458;-59
2022/01/14 06:18:41;;;;;;;4.70;4.30;;;;;;;;;;5037609;28;20037;-59
2022/01/14 06:21:07;;;;;;;4.45;4.00;;;;;;;;;;5036176;28;20028;-59
2022/01/14 06:23:33;;;;;;;4.05;3.63;;;;;;;;;;5038056;28;20036;-59
2022/01/14 06:25:58;;;;;;;4.75;4.35;;;;;;;;;;5039398;28;20463;-60
2022/01/14 06:28:24;;;;;;;3.88;3.47;;;;;;;;;;5037465;28;20430;-59
2022/01/14 06:30:49;;;;;;;5.82;3.95;;;;;;;;;;5035700;28;20037;-59
2022/01/14 06:33:15;;;;;;;5.47;4.63;;;;;;;;;;5039953;28;20362;-59
2022/01/14 06:35:41;;;;;;;3.70;3.33;;;;;;;;;;5039314;28;20108;-59
2022/01/14 06:38:06;;;;;;;3.95;3.55;;;;;;;;;;5039712;28;20044;-59
2022/01/14 06:40:32;;;;;;;4.82;4.30;;;;;;;;;;5035717;28;20034;-60
2022/01/14 06:42:58;;;;;;;4.40;4.00;;;;;;;;;;5038578;28;20030;-59
2022/01/14 06:45:24;;;;;;;5.60;4.38;;;;;;;;;;5037886;28;20409;-59
2022/01/14 06:47:50;;;;;;;6.82;4.03;;;;;;;;;;5038862;28;20039;-59
2022/01/14 06:50:16;;;;;;;7.28;5.20;;;;;;;;;;5040507;28;20044;-59
2022/01/14 06:52:41;;;;;;;4.18;3.65;;;;;;;;;;5042214;28;20091;-60
2022/01/14 06:55:08;;;;;;;4.97;3.22;;;;;;;;;;5038601;28;20459;-60
2022/01/14 06:57:35;;;;;;;4.05;3.65;;;;;;;;;;5042408;28;20033;-60
2022/01/14 07:00:02;;;;;;;4.70;4.10;;;;;;;;;;5039065;28;20493;-59
2022/01/14 07:02:27;;;;;;;3.90;3.53;;;;;;;;;;5040666;28;20037;-59
2022/01/14 07:04:53;;;;;;;5.50;4.00;;;;;;;;;;5042709;28;20024;-60
2022/01/14 07:07:18;;;;;;;4.88;4.38;;;;;;;;;;5042297;28;20037;-60
2022/01/14 07:09:58;;;;;;;4.65;4.22;;;;;;;;;;5041280;28;20454;-61
2022/01/14 07:12:30;;;;;;;4.38;3.70;;;;;;;;;;5040646;28;20025;-60
2022/01/14 07:14:56;;;;;;;5.15;4.63;;;;;;;;;;5040969;28;20410;-61
2022/01/14 07:17:22;;;;;;;4.93;4.43;;;;;;;;;;5040767;28;20432;-59
2022/01/14 07:19:51;;;;;;;4.35;3.72;;;;;;;;;;5039845;28;20048;-60
2022/01/14 07:22:16;;;;;;;4.60;4.15;;;;;;;;;;5044889;28;20041;-59
2022/01/14 07:24:41;;;;;;;7.75;4.40;;;;;;;;;;5038768;28;20039;-59
2022/01/14 07:27:07;;;;;;;3.78;3.35;;;;;;;;;;5040676;28;20036;-59
2022/01/14 07:29:32;;;;;;;3.75;3.38;;;;;;;;;;5050010;28;20103;-60
2022/01/14 07:31:58;;;;;;;4.20;3.65;;;;;;;;;;5039708;28;20033;-60
2022/01/14 07:34:24;;;;;;;4.28;3.88;;;;;;;;;;5042500;28;20037;-60
2022/01/14 07:36:50;;;;;;;5.05;3.88;;;;;;;;;;5042162;28;20028;-60
2022/01/14 07:39:15;;;;;;;5.53;4.00;;;;;;;;;;5040112;28;20087;-60
2022/01/14 07:41:41;;;;;;;4.32;3.65;;;;;;;;;;5038386;28;20096;-59
2022/01/14 07:44:06;;;;;;;4.72;4.22;;;;;;;;;;5039176;28;20120;-59
2022/01/14 07:46:31;;;;;;;2.95;2.63;;;;;;;;;;5040253;28;20184;-59
2022/01/14 07:48:58;;;;;;;4.80;4.30;;;;;;;;;;5039460;28;20033;-59
2022/01/14 07:51:23;;;;;;;4.65;4.00;;;;;;;;;;5040696;28;20044;-59
2022/01/14 07:53:48;;;;;;;4.18;3.78;;;;;;;;;;5043136;28;20025;-59
2022/01/14 07:56:14;;;;;;;5.00;4.55;;;;;;;;;;5037362;28;20924;-59
2022/01/14 07:58:41;;;;;;;5.65;4.97;;;;;;;;;;5040099;28;20439;-59
2022/01/14 08:01:07;;;;;;;4.43;4.03;;;;;;;;;;5039493;28;20422;-60
2022/01/14 08:03:33;;;;;;;4.78;4.28;;;;;;;;;;5040596;28;20520;-60
2022/01/14 08:05:58;;;;;;;4.00;3.58;;;;;;;;;;5040468;28;20064;-59
2022/01/14 08:08:24;;;;;;;4.57;3.97;;;;;;;;;;5037135;28;20116;-60
2022/01/14 08:10:50;;;;;;;4.20;3.80;;;;;;;;;;5041132;28;20045;-59
2022/01/14 08:13:15;;;;;;;6.22;4.30;;;;;;;;;;5040172;28;20025;-60
2022/01/14 08:15:41;;;;;;;4.65;4.03;;;;;;;;;;5039461;28;20562;-60
2022/01/14 08:18:07;;;;;;;6.28;4.43;;;;;;;;;;5040747;28;20025;-60
2022/01/14 08:20:33;;;;;;;3.40;3.05;;;;;;;;;;5039152;28;20612;-59
2022/01/14 08:22:58;;;;;;;4.55;3.95;;;;;;;;;;5038305;28;20029;-59
2022/01/14 08:25:24;;;;;;;3.60;3.30;;;;;;;;;;5041735;28;20424;-59
2022/01/14 08:27:50;;;;;;;4.90;4.45;;;;;;;;;;5039998;28;20037;-59
2022/01/14 08:30:15;;;;;;;4.88;4.38;;;;;;;;;;5037875;28;20250;-59
2022/01/14 08:32:41;;;;;;;5.30;4.75;;;;;;;;;;5037875;28;20072;-59
2022/01/14 08:35:07;;;;;;;5.10;4.32;;;;;;;;;;5036007;28;20195;-59
2022/01/14 08:37:32;;;;;;;5.60;4.38;;;;;;;;;;5043111;28;20560;-59
2022/01/14 08:39:58;;;;;;;5.70;4.50;;;;;;;;;;5038331;28;20029;-59
2022/01/14 08:42:23;;;;;;;3.78;3.38;;;;;;;;;;5041001;28;20116;-59
2022/01/14 08:44:49;;;;;;;5.68;5.15;;;;;;;;;;5041481;28;20033;-59
2022/01/14 08:47:14;;;;;;;5.38;4.75;;;;;;;;;;5039161;28;20106;-60
2022/01/14 08:49:41;;;;;;;11.10;4.63;;;;;;;;;;5040709;28;20037;-60
2022/01/14 08:52:09;;;;;;;4.45;4.05;;;;;;;;;;5036109;28;20539;-60
2022/01/14 08:54:35;;;;;;;5.25;4.72;;;;;;;;;;5038906;28;20064;-60
2022/01/14 08:57:03;;;;;;;5.32;4.50;;;;;;;;;;5039509;28;20869;-59
2022/01/14 08:59:30;;;;;;;4.63;3.42;;;;;;;;;;5039012;28;20041;-59
2022/01/14 09:01:55;;;;;;;6.65;5.47;;;;;;;;;;5035389;28;20391;-60
2022/01/14 09:04:21;;;;;;;4.82;4.40;;;;;;;;;;5038023;28;20033;-59
2022/01/14 09:06:46;;;;;;;5.28;4.18;;;;;;;;;;5039106;28;20030;-59
2022/01/14 09:09:12;;;;;;;6.20;5.60;;;;;;;;;;5037068;28;20541;-59
2022/01/14 09:11:37;;;;;;;8.05;4.32;;;;;;;;;;5037276;28;20386;-59
2022/01/14 09:14:03;;;;;;;4.38;3.95;;;;;;;;;;5040447;28;20037;-59
2022/01/14 09:16:28;;;;;;;4.50;4.00;;;;;;;;;;5038378;28;20033;-59
2022/01/14 09:18:54;;;;;;;4.35;3.83;;;;;;;;;;5037826;28;20452;-59
2022/01/14 09:21:19;;;;;;;8.55;5.28;;;;;;;;;;5036294;28;20056;-59
2022/01/14 09:23:53;;;;;;;3.80;3.50;;;;;;;;;;5037564;28;20083;-59
2022/01/14 09:26:19;;;;;;;4.80;4.28;;;;;;;;;;5038943;28;20063;-59
2022/01/14 09:28:45;;;;;;;5.20;4.70;;;;;;;;;;5038648;28;20037;-59
2022/01/14 09:31:10;;;;;;;4.32;3.65;;;;;;;;;;5037715;28;20033;-59
2022/01/14 09:33:37;;;;;;;5.18;4.40;;;;;;;;;;5039433;28;20039;-60
2022/01/14 09:36:04;;;;;;;4.78;4.35;;;;;;;;;;5038141;28;20336;-59
2022/01/14 09:38:30;;;;;;;6.85;5.15;;;;;;;;;;5039181;28;20466;-59
2022/01/14 09:40:56;;;;;;;4.93;4.18;;;;;;;;;;5037310;28;20040;-59
2022/01/14 09:43:21;;;;;;;4.20;3.80;;;;;;;;;;5038884;28;20034;-59
2022/01/14 09:45:50;;;;;;;5.18;4.68;;;;;;;;;;5036573;28;20454;-60
2022/01/14 09:48:15;;;;;;;5.25;4.75;;;;;;;;;;5036375;28;20087;-60
2022/01/14 09:50:42;;;;;;;5.53;4.45;;;;;;;;;;5036509;28;20029;-60
2022/01/14 09:53:13;;;;;;;9.02;4.85;;;;;;;;;;5039065;28;20056;-60
2022/01/14 09:55:38;;;;;;;5.07;4.13;;;;;;;;;;5038686;28;20482;-60
2022/01/14 09:58:04;;;;;;;9.27;5.82;;;;;;;;;;5037216;28;20035;-60
2022/01/14 10:00:29;;;;;;;5.53;4.85;;;;;;;;;;5040532;28;20032;-60
2022/01/14 10:02:54;;;;;;;6.78;5.13;;;;;;;;;;5037613;28;20459;-60
2022/01/14 10:05:35;;;;;;;7.07;6.40;;;;;;;;;;5035705;28;20041;-60
2022/01/14 10:08:14;;;;;;;7.75;5.50;;;;;;;;;;5040271;28;20029;-61
2022/01/14 10:10:48;;;;;;;4.00;3.67;;;;;;;;;;5036953;28;20102;-60
2022/01/14 10:13:17;;;;;;;7.97;5.78;;;;;;;;;;5039889;28;20406;-59
2022/01/14 10:15:45;;;;;;;6.03;5.32;;;;;;;;;;5037391;28;20041;-59
2022/01/14 10:18:13;;;;;;;4.75;4.35;;;;;;;;;;5036196;28;20060;-59
2022/01/14 10:20:38;;;;;;;7.30;6.35;;;;;;;;;;5034839;28;20466;-59
2022/01/14 10:23:03;;;;;;;6.25;4.10;;;;;;;;;;5037100;28;20086;-59
2022/01/14 10:25:29;;;;;;;5.47;4.72;;;;;;;;;;5038508;28;20128;-60
2022/01/14 10:27:55;;;;;;;8.02;5.47;;;;;;;;;;5044501;28;20029;-60
2022/01/14 10:30:28;;;;;;;7.10;6.38;;;;;;;;;;5042110;28;20064;-61
2022/01/14 10:32:57;;;;;;;7.68;5.40;;;;;;;;;;5041588;28;20039;-60
2022/01/14 10:35:25;;;;;;;11.80;6.63;;;;;;;;;;5045185;28;20039;-59
2022/01/14 10:37:55;;;;;;;7.03;6.32;;;;;;;;;;5041770;28;20045;-60
2022/01/14 10:40:24;;;;;;;9.40;7.38;;;;;;;;;;5041911;28;20044;-60
2022/01/14 10:42:52;;;;;;;5.88;5.28;;;;;;;;;;5043227;28;20052;-60
2022/01/14 10:45:24;;;;;;;15.32;6.10;;;;;;;;;;5040832;28;20041;-59
2022/01/14 10:48:03;;;;;;;10.90;6.18;;;;;;;;;;5037719;28;20033;-59
2022/01/14 10:50:29;;;;;;;5.75;4.55;;;;;;;;;;5040896;28;20029;-61
2022/01/14 10:52:55;;;;;;;7.07;6.32;;;;;;;;;;5037843;28;20556;-61
2022/01/14 10:55:30;;;;;;;6.88;6.18;;;;;;;;;;5041682;28;20112;-61
2022/01/14 10:57:55;;;;;;;9.73;6.80;;;;;;;;;;5039421;28;20033;-61
2022/01/14 11:00:22;;;;;;;8.60;6.88;;;;;;;;;;5041797;28;20140;-60
2022/01/14 11:02:52;;;;;;;8.25;6.13;;;;;;;;;;5043877;28;20029;-61
2022/01/14 11:05:20;;;;;;;15.93;7.13;;;;;;;;;;5036408;28;20136;-61
2022/01/14 11:07:47;;;;;;;8.95;6.00;;;;;;;;;;5040556;28;20144;-61
2022/01/14 11:10:24;;;;;;;5.15;4.65;;;;;;;;;;5038751;28;20041;-60
2022/01/14 11:12:52;;;;;;;10.20;6.05;;;;;;;;;;5040691;28;20050;-60
2022/01/14 11:15:18;;;;;;;9.30;6.88;;;;;;;;;;5040033;28;20036;-60
2022/01/14 11:17:51;;;;;;;11.80;6.30;;;;;;;;;;5042184;28;20036;-60
2022/01/14 11:20:23;;;;;;;10.50;6.32;;;;;;;;;;5042478;28;20501;-60
2022/01/14 11:25:38;;;;;;;11.88;7.68;;;;;;;;;;5040283;28;20052;-60
2022/01/14 11:28:06;;;;;;;9.43;7.00;;;;;;;;;;5039180;28;20550;-60
2022/01/14 11:30:38;;;;;;;6.07;5.55;;;;;;;;;;5040376;28;20132;-60
2022/01/14 11:33:04;;;;;;;7.93;6.65;;;;;;;;;;5041187;28;20044;-60
2022/01/14 11:35:31;;;;;;;10.05;6.35;;;;;;;;;;5042126;28;20074;-60
2022/01/14 11:37:57;;;;;;;8.90;6.68;;;;;;;;;;5040153;28;20807;-60
2022/01/14 11:40:22;;;;;;;8.60;7.72;;;;;;;;;;5038275;28;20033;-61
2022/01/14 11:42:50;;;;;;;11.25;7.75;;;;;;;;;;5039041;28;20033;-60
2022/01/14 11:45:40;;;;;;;8.38;5.97;;;;;;;;;;5040202;28;20255;-61
2022/01/14 11:48:06;;;;;;;9.50;6.15;;;;;;;;;;5041321;28;20029;-61
2022/01/14 11:50:32;;;;;;;6.95;6.25;;;;;;;;;;5040979;28;20132;-61
2022/01/14 11:52:58;;;;;;;9.45;6.25;;;;;;;;;;5041557;28;20124;-61
2022/01/14 11:55:23;;;;;;;7.07;5.70;;;;;;;;;;5039986;28;20045;-61
2022/01/14 11:57:55;;;;;;;8.13;6.43;;;;;;;;;;5038367;28;20108;-61
2022/01/14 12:00:30;;;;;;;7.53;6.72;;;;;;;;;;5039428;28;20041;-61
2022/01/14 12:03:11;;;;;;;7.95;6.78;;;;;;;;;;5041065;28;20532;-60
2022/01/14 12:05:38;;;;;;;7.70;6.85;;;;;;;;;;5037312;28;20159;-60
2022/01/14 12:08:12;;;;;;;7.18;6.53;;;;;;;;;;5039944;28;20036;-60
2022/01/14 12:10:43;;;;;;;9.98;6.30;;;;;;;;;;5042101;28;20072;-60
2022/01/14 12:13:27;;;;;;;7.50;5.85;;;;;;;;;;5040722;28;20044;-61
2022/01/14 12:15:58;;;;;;;8.10;6.57;;;;;;;;;;5040412;28;20048;-57
2022/01/14 12:18:57;;;;;;;7.38;6.68;;;;;;;;;;5036545;28;20064;-55
2022/01/14 12:21:40;;;;;;;7.68;6.60;;;;;;;;;;5040930;28;20434;-57
2022/01/14 12:24:15;;;;;;;10.73;7.70;;;;;;;;;;5038187;28;20045;-56
2022/01/14 12:27:04;;;;;;;10.38;8.60;;;;;;;;;;5044817;28;20051;-56
2022/01/14 12:29:50;;;;;;;13.13;7.32;;;;;;;;;;5041378;28;20030;-56
2022/01/14 12:32:21;;;;;;;12.75;7.95;;;;;;;;;;5038857;28;20107;-57
2022/01/14 12:34:56;;;;;;;;;;;;;;;;;;5037707;28;20052;-56
2022/01/14 12:37:27;;;;;;;13.63;7.00;;;;;;;;;;5040040;28;19909;-57
2022/01/14 12:39:52;;;;;;;;;;;;;;;;;;5036853;28;20029;-57
2022/01/14 12:42:20;;;;;;;8.77;7.88;;;;;;;;;;5037745;28;19920;-57
2022/01/14 12:44:47;;;;;;;11.57;8.45;;;;;;;;;;5039852;28;20029;-56
2022/01/14 12:47:20;;;;;;;9.43;6.40;;;;;;;;;;5048097;28;20032;-57
2022/01/14 12:49:45;;;;;;;11.48;8.85;;;;;;;;;;5042247;28;20029;-56
2022/01/14 12:52:19;;;;;;;8.65;7.40;;;;;;;;;;5037293;28;20036;-56
2022/01/14 12:54:46;;;;;;;8.48;7.05;;;;;;;;;;5041989;28;20037;-57
2022/01/14 12:57:17;;;;;;;7.47;6.35;;;;;;;;;;5040031;28;20033;-56
2022/01/14 12:59:44;;;;;;;;;;;;;;;;;;5040347;28;20471;-57
2022/01/14 13:02:21;;;;;;;11.07;8.00;;;;;;;;;;5038760;28;19913;-57
2022/01/14 13:05:14;;;;;;;6.70;6.05;;;;;;;;;;5040169;28;20379;-56
2022/01/14 13:07:40;;;;;;;9.93;7.47;;;;;;;;;;5039885;28;20054;-57
2022/01/14 13:10:08;;;;;;;14.88;9.02;;;;;;;;;;5038031;28;20689;-57
2022/01/14 13:12:40;;;;;;;14.40;8.73;;;;;;;;;;5038995;28;20147;-56
2022/01/14 13:15:13;;;;;;;12.00;9.07;;;;;;;;;;5037981;28;20029;-56
2022/01/14 13:17:43;;;;;;;11.85;8.02;;;;;;;;;;5038453;28;20124;-56
2022/01/14 13:20:14;;;;;;;11.27;6.23;;;;;;;;;;5038337;28;20040;-57
2022/01/14 13:22:43;;;;;;;9.20;7.70;;;;;;;;;;5039120;28;20313;-55
2022/01/14 13:25:20;;;;;;;10.90;9.23;;;;;;;;;;5037756;28;20116;-56
2022/01/14 13:27:47;;;;;;;10.20;7.93;;;;;;;;;;5037516;28;20423;-54
2022/01/14 13:30:19;;;;;;;11.15;7.32;;;;;;;;;;5037269;28;20112;-57
2022/01/14 13:32:46;;;;;;;15.05;8.77;;;;;;;;;;5034722;28;20025;-57
2022/01/14 13:35:14;;;;;;;9.02;7.10;;;;;;;;;;5037754;28;20033;-57
2022/01/14 13:37:42;;;;;;;12.48;8.63;;;;;;;;;;5039598;28;20037;-57
2022/01/14 13:40:14;;;;;;;12.13;8.35;;;;;;;;;;5037347;28;20029;-55
2022/01/14 13:42:45;;;;;;;16.30;9.25;;;;;;;;;;5035174;28;20063;-56
2022/01/14 13:45:31;;;;;;;;;;;;;;;;;;5035250;28;20029;-55
2022/01/14 13:48:08;;;;;;;12.82;8.80;;;;;;;;;;5038987;28;20350;-56
2022/01/14 13:50:39;;;;;;;11.15;9.75;;;;;;;;;;5037438;28;20068;-57
2022/01/14 13:53:05;;;;;;;11.82;9.98;;;;;;;;;;5038933;28;20083;-57
2022/01/14 13:55:51;;;;;;;16.58;9.40;;;;;;;;;;5038141;28;20036;-56
2022/01/14 13:58:27;;;;;;;12.73;10.43;;;;;;;;;;5033612;28;20028;-57
2022/01/14 14:01:01;;;;;;;12.98;8.82;;;;;;;;;;5037716;28;20049;-56
2022/01/14 14:03:39;;;;;;;15.88;10.45;;;;;;;;;;5044861;28;20065;-57
2022/01/14 14:06:10;;;;;;;13.82;9.05;;;;;;;;;;5041826;28;20035;-57
2022/01/14 14:08:44;;;;;;;11.40;8.32;;;;;;;;;;5041886;28;20474;-57
2022/01/14 14:17:03;;;;;;;9.93;8.90;;;;;;;;;;5040983;28;20025;-57
2022/01/14 14:19:49;;;;;;;10.20;7.30;;;;;;;;;;5043148;28;20037;-57
2022/01/14 14:22:23;;;;;;;12.52;7.75;;;;;;;;;;5039729;28;20072;-56
2022/01/14 14:25:07;;;;;;;13.30;9.05;;;;;;;;;;5034470;28;20136;-57
2022/01/14 14:27:34;;;;;;;13.05;9.85;;;;;;;;;;5032428;28;20034;-58
2022/01/14 14:30:10;;;;;;;12.68;9.60;;;;;;;;;;5029847;28;20489;-56
2022/01/14 14:32:37;;;;;;;10.45;9.05;;;;;;;;;;5033786;28;20479;-57
2022/01/14 14:35:23;;;;;;;9.80;8.48;;;;;;;;;;5035712;28;20037;-56
2022/01/14 14:37:56;;;;;;;10.43;7.93;;;;;;;;;;5032692;28;20073;-57
2022/01/14 14:40:28;;;;;;;17.90;9.57;;;;;;;;;;5035700;28;20479;-56
2022/01/14 14:42:53;;;;;;;11.48;7.78;;;;;;;;;;5034677;28;20401;-57
2022/01/14 14:45:19;;;;;;;15.30;9.77;;;;;;;;;;5032699;28;20067;-57
2022/01/14 14:47:45;;;;;;;9.45;8.23;;;;;;;;;;5021573;28;20039;-58
2022/01/14 14:50:14;;;;;;;9.80;8.13;;;;;;;;;;5041683;28;20467;-58
2022/01/14 14:52:40;;;;;;;9.90;7.05;;;;;;;;;;5039653;28;20120;-56
2022/01/14 14:55:07;;;;;;;21.70;13.10;;;;;;;;;;5040211;28;20104;-57
2022/01/14 14:57:32;;;;;;;12.75;8.93;;;;;;;;;;5041241;28;20351;-58
2022/01/14 14:59:58;;;;;;;17.33;11.88;;;;;;;;;;5041438;28;20111;-57
2022/01/14 15:02:24;;;;;;;8.73;7.82;;;;;;;;;;5039637;28;20344;-56
2022/01/14 15:04:49;;;;;;;9.00;8.18;;;;;;;;;;5041406;28;20036;-57
2022/01/14 15:07:15;;;;;;;9.35;8.15;;;;;;;;;;5040837;28;20051;-58
2022/01/14 15:09:41;;;;;;;8.93;8.00;;;;;;;;;;5040538;28;20060;-58
2022/01/14 15:12:11;;;;;;;8.02;7.28;;;;;;;;;;5055107;28;20033;-58
2022/01/14 15:14:38;;;;;;;7.63;6.60;;;;;;;;;;5040726;28;20055;-56
2022/01/14 15:19:34;;;;;;;12.57;8.25;;;;;;;;;;5040393;28;20116;-56